createdAt,value
2019-03-17T00:00:06.914Z,85.17
2019-03-17T00:01:06.905Z,85.09
2019-03-17T00:02:06.879Z,84.33
2019-03-17T00:03:06.872Z,84.91
2019-03-17T00:04:06.918Z,84.41
2019-03-17T00:05:06.906Z,84.75
2019-03-17T00:06:07.898Z,84.61
2019-03-17T00:07:06.902Z,84.38
2019-03-17T00:08:06.873Z,84.15
2019-03-17T00:09:06.882Z,84.39
2019-03-17T00:10:06.871Z,84.99
2019-03-17T00:11:06.976Z,85.55
2019-03-17T00:12:06.890Z,84.93
2019-03-17T00:13:06.879Z,84.53
2019-03-17T00:14:06.861Z,84.38
2019-03-17T00:15:06.911Z,85.59
2019-03-17T00:16:06.903Z,86.06
2019-03-17T00:17:06.892Z,85.95
2019-03-17T00:18:06.861Z,85.23
2019-03-17T00:19:06.883Z,85.44
2019-03-17T00:20:06.858Z,85.54
2019-03-17T00:21:06.853Z,85.46
2019-03-17T00:22:06.839Z,86.26
2019-03-17T00:23:06.875Z,85.83
2019-03-17T00:24:06.909Z,85.72
2019-03-17T00:25:09.403Z,85.35
2019-03-17T00:26:06.839Z,85.48
2019-03-17T00:27:06.859Z,85.64
2019-03-17T00:28:06.848Z,85.51
2019-03-17T00:29:06.865Z,85.46
2019-03-17T00:30:06.941Z,84.96
2019-03-17T00:31:06.840Z,85.09
2019-03-17T00:32:06.852Z,85.51
2019-03-17T00:33:06.881Z,84.95
2019-03-17T00:34:07.143Z,85.18
2019-03-17T00:35:06.828Z,85.58
2019-03-17T00:36:06.853Z,85.04
2019-03-17T00:37:06.834Z,85.33
2019-03-17T00:38:06.832Z,84.78
2019-03-17T00:39:06.877Z,85.14
2019-03-17T00:40:06.856Z,85.15
2019-03-17T00:41:06.836Z,85.13
2019-03-17T00:42:06.962Z,85.33
2019-03-17T00:43:06.819Z,85.79
2019-03-17T00:44:06.830Z,85.58
2019-03-17T00:45:06.826Z,85.22
2019-03-17T00:46:06.816Z,85.63
2019-03-17T00:47:06.871Z,86.37
2019-03-17T00:48:06.876Z,86.53
2019-03-17T00:49:06.838Z,86.42
2019-03-17T00:50:06.838Z,86.36
2019-03-17T00:51:06.825Z,86.31
2019-03-17T00:52:06.817Z,86.04
2019-03-17T00:53:06.801Z,86.82
2019-03-17T00:54:06.803Z,86.29
2019-03-17T00:55:06.829Z,86.21
2019-03-17T00:56:06.814Z,86.13
2019-03-17T00:57:06.800Z,85.77
2019-03-17T00:58:06.794Z,85.7
2019-03-17T00:59:06.803Z,85.42
2019-03-17T01:00:06.796Z,85.99
2019-03-17T01:01:06.812Z,85.32
2019-03-17T01:02:06.796Z,85.59
2019-03-17T01:03:06.784Z,84.87
2019-03-17T01:04:06.787Z,84.72
2019-03-17T01:05:06.802Z,84.54
2019-03-17T01:06:06.787Z,84.31
2019-03-17T01:07:07.153Z,84.42
2019-03-17T01:08:06.784Z,84.23
2019-03-17T01:09:06.795Z,83.92
2019-03-17T01:10:06.782Z,83.87
2019-03-17T01:11:06.781Z,83.94
2019-03-17T01:12:07.697Z,83.6
2019-03-17T01:13:06.991Z,83.77
2019-03-17T01:14:06.825Z,83.6
2019-03-17T01:15:06.804Z,83.21
2019-03-17T01:16:06.781Z,82.94
2019-03-17T01:17:06.760Z,82.94
2019-03-17T01:18:06.767Z,82.98
2019-03-17T01:19:06.770Z,82.76
2019-03-17T01:20:06.776Z,83.16
2019-03-17T01:21:06.767Z,82.64
2019-03-17T01:22:06.762Z,82.79
2019-03-17T01:23:06.763Z,82.7
2019-03-17T01:24:06.759Z,82.74
2019-03-17T01:25:06.759Z,82.77
2019-03-17T01:26:06.753Z,82.58
2019-03-17T01:27:06.761Z,82.69
2019-03-17T01:28:06.757Z,82.23
2019-03-17T01:29:06.756Z,82.43
2019-03-17T01:30:06.756Z,82.48
2019-03-17T01:31:06.778Z,82.63
2019-03-17T01:32:06.784Z,82.49
2019-03-17T01:33:06.748Z,82.53
2019-03-17T01:34:06.786Z,82.53
2019-03-17T01:35:09.383Z,82.72
2019-03-17T01:36:06.743Z,82.75
2019-03-17T01:37:06.740Z,82.59
2019-03-17T01:38:06.752Z,82.92
2019-03-17T01:39:06.795Z,82.81
2019-03-17T01:40:06.768Z,82.7
2019-03-17T01:41:06.725Z,82.73
2019-03-17T01:42:06.738Z,82.74
2019-03-17T01:43:06.725Z,82.8
2019-03-17T01:44:06.728Z,82.81
2019-03-17T01:45:06.742Z,82.89
2019-03-17T01:46:06.729Z,83.06
2019-03-17T01:47:06.724Z,83.07
2019-03-17T01:48:06.727Z,82.99
2019-03-17T01:49:06.727Z,82.82
2019-03-17T01:50:06.717Z,82.89
2019-03-17T01:51:06.719Z,83.13
2019-03-17T01:52:06.735Z,83.08
2019-03-17T01:53:06.716Z,83.19
2019-03-17T01:54:06.747Z,83.14
2019-03-17T01:55:06.783Z,83.16
2019-03-17T01:56:06.729Z,83.42
2019-03-17T01:57:06.695Z,83.13
2019-03-17T01:58:06.705Z,83.03
2019-03-17T01:59:06.714Z,83.12
2019-03-17T02:00:06.728Z,83.22
2019-03-17T02:01:06.717Z,83.37
2019-03-17T02:02:06.714Z,83.12
2019-03-17T02:03:06.704Z,83.04
2019-03-17T02:04:07.738Z,83.49
2019-03-17T02:05:06.716Z,83.58
2019-03-17T02:06:06.763Z,83.52
2019-03-17T02:07:06.728Z,83.58
2019-03-17T02:08:06.710Z,83.57
2019-03-17T02:09:06.689Z,83.62
2019-03-17T02:10:06.697Z,83.4
2019-03-17T02:11:06.703Z,83.36
2019-03-17T02:12:06.753Z,83.44
2019-03-17T02:13:06.693Z,83.36
2019-03-17T02:14:06.710Z,83.42
2019-03-17T02:15:06.686Z,83.82
2019-03-17T02:16:06.712Z,83.62
2019-03-17T02:17:06.709Z,83.4
2019-03-17T02:18:06.694Z,83.36
2019-03-17T02:19:06.674Z,83.75
2019-03-17T02:20:06.729Z,83.93
2019-03-17T02:21:06.676Z,83.66
2019-03-17T02:22:06.718Z,83.57
2019-03-17T02:23:06.734Z,83.47
2019-03-17T02:24:06.674Z,83.88
2019-03-17T02:25:06.684Z,84.29
2019-03-17T02:26:06.679Z,84.1
2019-03-17T02:27:06.696Z,83.94
2019-03-17T02:28:06.687Z,84.53
2019-03-17T02:29:06.689Z,84.72
2019-03-17T02:30:06.672Z,84.67
2019-03-17T02:31:06.668Z,84.58
2019-03-17T02:32:06.665Z,84.44
2019-03-17T02:33:06.690Z,84.45
2019-03-17T02:34:06.662Z,84.56
2019-03-17T02:35:06.663Z,84.57
2019-03-17T02:36:06.663Z,84.23
2019-03-17T02:37:06.659Z,84.07
2019-03-17T02:38:06.816Z,84.44
2019-03-17T02:39:06.747Z,84.21
2019-03-17T02:40:06.669Z,84.15
2019-03-17T02:41:06.671Z,84.42
2019-03-17T02:42:06.693Z,84.53
2019-03-17T02:43:06.661Z,84.5
2019-03-17T02:44:06.668Z,84.11
2019-03-17T02:45:06.641Z,83.99
2019-03-17T02:46:06.653Z,83.93
2019-03-17T02:47:06.642Z,84.19
2019-03-17T02:48:06.658Z,84.05
2019-03-17T02:49:06.647Z,84.01
2019-03-17T02:50:06.666Z,84.1
2019-03-17T02:51:06.638Z,83.98
2019-03-17T02:52:06.625Z,83.96
2019-03-17T02:53:06.642Z,83.88
2019-03-17T02:54:06.656Z,84.25
2019-03-17T02:55:06.640Z,84.3
2019-03-17T02:56:06.641Z,84.3
2019-03-17T02:57:06.659Z,84.21
2019-03-17T02:58:06.626Z,84.15
2019-03-17T02:59:06.619Z,84.19
2019-03-17T03:00:06.655Z,84.3
2019-03-17T03:01:06.642Z,84.18
2019-03-17T03:02:06.635Z,84.01
2019-03-17T03:03:06.645Z,84.23
2019-03-17T03:04:06.622Z,84.29
2019-03-17T03:05:06.629Z,84.24
2019-03-17T03:06:06.650Z,84.28
2019-03-17T03:07:06.645Z,84.29
2019-03-17T03:08:06.632Z,84.33
2019-03-17T03:09:06.611Z,84.32
2019-03-17T03:10:06.616Z,83.87
2019-03-17T03:11:06.614Z,83.77
2019-03-17T03:12:06.631Z,83.87
2019-03-17T03:13:06.640Z,84.07
2019-03-17T03:14:06.632Z,84.45
2019-03-17T03:15:06.597Z,84.27
2019-03-17T03:16:06.619Z,84.95
2019-03-17T03:17:06.635Z,84.71
2019-03-17T03:18:06.603Z,84.39
2019-03-17T03:19:06.602Z,84.74
2019-03-17T03:20:06.604Z,84.85
2019-03-17T03:21:06.683Z,84.52
2019-03-17T03:22:06.609Z,84.75
2019-03-17T03:23:06.578Z,84.6
2019-03-17T03:24:06.592Z,84.77
2019-03-17T03:25:06.587Z,85.4
2019-03-17T03:26:06.577Z,85.3
2019-03-17T03:27:06.605Z,86.29
2019-03-17T03:28:06.608Z,85.73
2019-03-17T03:29:06.595Z,85.38
2019-03-17T03:30:06.592Z,85.89
2019-03-17T03:31:06.584Z,85.61
2019-03-17T03:32:06.618Z,85.53
2019-03-17T03:33:06.607Z,85.32
2019-03-17T03:34:06.585Z,85.48
2019-03-17T03:35:06.604Z,85.41
2019-03-17T03:36:11.156Z,85.38
2019-03-17T03:37:06.597Z,85.71
2019-03-17T03:38:06.572Z,85.63
2019-03-17T03:39:06.672Z,85.23
2019-03-17T03:40:06.614Z,85.26
2019-03-17T03:41:06.572Z,85.44
2019-03-17T03:42:06.574Z,85.59
2019-03-17T03:43:06.724Z,85.39
2019-03-17T03:44:06.590Z,84.86
2019-03-17T03:45:06.585Z,85.16
2019-03-17T03:46:06.581Z,85.64
2019-03-17T03:47:06.573Z,85.74
2019-03-17T03:48:06.855Z,85.29
2019-03-17T03:49:06.552Z,85.37
2019-03-17T03:50:06.554Z,85.53
2019-03-17T03:51:06.564Z,85.24
2019-03-17T03:52:06.618Z,85.68
2019-03-17T03:53:06.847Z,85.38
2019-03-17T03:54:06.560Z,85.37
2019-03-17T03:55:06.672Z,85.29
2019-03-17T03:56:06.565Z,85.28
2019-03-17T03:57:06.557Z,85.57
2019-03-17T03:58:06.585Z,85.24
2019-03-17T03:59:06.567Z,85.39
2019-03-17T04:00:06.538Z,85.17
2019-03-17T04:01:06.552Z,85.5
2019-03-17T04:02:06.526Z,85.25
2019-03-17T04:03:06.555Z,85.32
2019-03-17T04:04:06.641Z,85.5
2019-03-17T04:05:06.913Z,85.11
2019-03-17T04:06:06.565Z,85.13
2019-03-17T04:07:06.541Z,85.09
2019-03-17T04:08:06.537Z,85.24
2019-03-17T04:09:06.532Z,85.2
2019-03-17T04:10:06.561Z,85.3
2019-03-17T04:11:06.521Z,85.63
2019-03-17T04:12:06.549Z,85.15
2019-03-17T04:13:06.582Z,85.15
2019-03-17T04:14:06.549Z,85.53
2019-03-17T04:15:06.508Z,85.76
2019-03-17T04:16:06.519Z,86.33
2019-03-17T04:17:06.534Z,86.23
2019-03-17T04:18:06.519Z,85.72
2019-03-17T04:19:06.539Z,86.08
2019-03-17T04:20:06.512Z,85.74
2019-03-17T04:21:06.563Z,85.52
2019-03-17T04:22:06.536Z,85.55
2019-03-17T04:23:06.519Z,86.09
2019-03-17T04:24:06.531Z,85.72
2019-03-17T04:25:06.500Z,85.86
2019-03-17T04:26:06.555Z,85.5
2019-03-17T04:27:06.520Z,85.42
2019-03-17T04:28:06.507Z,85.88
2019-03-17T04:29:06.503Z,85.95
2019-03-17T04:30:06.505Z,86.4
2019-03-17T04:31:06.526Z,85.93
2019-03-17T04:32:06.492Z,86.46
2019-03-17T04:33:06.587Z,86.21
2019-03-17T04:34:06.571Z,86.12
2019-03-17T04:35:06.504Z,85.92
2019-03-17T04:36:06.499Z,85.72
2019-03-17T04:37:06.489Z,85.56
2019-03-17T04:38:06.537Z,85.87
2019-03-17T04:39:06.483Z,85.72
2019-03-17T04:40:06.519Z,85.73
2019-03-17T04:41:06.523Z,85.6
2019-03-17T04:42:06.493Z,85.62
2019-03-17T04:43:06.539Z,85.91
2019-03-17T04:44:06.491Z,86
2019-03-17T04:45:06.505Z,85.67
2019-03-17T04:46:06.481Z,85.82
2019-03-17T04:47:06.478Z,85.96
2019-03-17T04:48:06.492Z,85.65
2019-03-17T04:49:06.485Z,85.74
2019-03-17T04:50:06.476Z,85.66
2019-03-17T04:51:06.473Z,86.41
2019-03-17T04:52:06.463Z,86.04
2019-03-17T04:53:06.473Z,85.91
2019-03-17T04:54:06.506Z,85.83
2019-03-17T04:55:06.539Z,85.96
2019-03-17T04:56:08.274Z,86.23
2019-03-17T04:57:06.461Z,86.71
2019-03-17T04:58:06.480Z,86.71
2019-03-17T04:59:06.470Z,86.06
2019-03-17T05:00:06.467Z,86.04
2019-03-17T05:01:06.453Z,86.36
2019-03-17T05:02:06.445Z,86.14
2019-03-17T05:03:06.480Z,86.24
2019-03-17T05:04:06.451Z,86.37
2019-03-17T05:05:06.460Z,85.96
2019-03-17T05:06:06.448Z,86.21
2019-03-17T05:07:06.444Z,86.28
2019-03-17T05:08:06.449Z,86.28
2019-03-17T05:09:06.433Z,86.53
2019-03-17T05:10:06.434Z,86.03
2019-03-17T05:11:06.442Z,86.57
2019-03-17T05:12:06.450Z,87.17
2019-03-17T05:13:06.430Z,86.79
2019-03-17T05:14:06.452Z,86.9
2019-03-17T05:15:06.458Z,86.79
2019-03-17T05:16:06.447Z,87.32
2019-03-17T05:17:06.571Z,87.16
2019-03-17T05:18:06.448Z,87.4
2019-03-17T05:19:06.430Z,87.34
2019-03-17T05:20:06.424Z,87.23
2019-03-17T05:21:06.418Z,86.95
2019-03-17T05:22:06.433Z,86.79
2019-03-17T05:23:06.429Z,86.81
2019-03-17T05:24:06.419Z,87.08
2019-03-17T05:25:06.437Z,87.06
2019-03-17T05:26:06.433Z,86.92
2019-03-17T05:27:06.420Z,86.95
2019-03-17T05:28:06.419Z,86.76
2019-03-17T05:29:06.419Z,86.8
2019-03-17T05:30:06.406Z,86.45
2019-03-17T05:31:06.407Z,86.52
2019-03-17T05:32:06.426Z,86.54
2019-03-17T05:33:06.490Z,86.37
2019-03-17T05:34:06.402Z,86.32
2019-03-17T05:35:06.415Z,85.86
2019-03-17T05:36:06.400Z,85.54
2019-03-17T05:37:07.070Z,85.54
2019-03-17T05:38:06.426Z,85.32
2019-03-17T05:39:06.471Z,85.14
2019-03-17T05:40:06.427Z,85.1
2019-03-17T05:41:06.400Z,84.59
2019-03-17T05:42:06.402Z,84.33
2019-03-17T05:43:06.392Z,83.47
2019-03-17T05:44:06.396Z,83.41
2019-03-17T05:45:06.394Z,83.59
2019-03-17T05:46:06.386Z,83.83
2019-03-17T05:47:06.418Z,83.9
2019-03-17T05:48:06.397Z,84
2019-03-17T05:49:06.398Z,83.94
2019-03-17T05:50:06.381Z,84.1
2019-03-17T05:51:06.473Z,83.95
2019-03-17T05:52:06.393Z,83.4
2019-03-17T05:53:06.409Z,83.27
2019-03-17T05:54:06.381Z,83.28
2019-03-17T05:55:06.370Z,82.51
2019-03-17T05:56:06.379Z,81.11
2019-03-17T05:57:06.388Z,80.12
2019-03-17T05:58:06.383Z,79.83
2019-03-17T05:59:06.381Z,79.9
2019-03-17T06:00:06.440Z,79.72
2019-03-17T06:01:06.373Z,79.6
2019-03-17T06:02:06.357Z,79.34
2019-03-17T06:03:06.360Z,79
2019-03-17T06:04:06.374Z,79.22
2019-03-17T06:05:06.399Z,79.03
2019-03-17T06:06:06.376Z,79.05
2019-03-17T06:07:17.936Z,79.02
2019-03-17T06:08:06.378Z,79.55
2019-03-17T06:09:06.344Z,79.56
2019-03-17T06:10:06.403Z,79.66
2019-03-17T06:11:06.366Z,79.56
2019-03-17T06:12:06.363Z,79.08
2019-03-17T06:13:06.358Z,79.53
2019-03-17T06:14:06.340Z,78.78
2019-03-17T06:15:06.382Z,78.92
2019-03-17T06:16:06.348Z,78.77
2019-03-17T06:17:06.355Z,78.68
2019-03-17T06:18:06.421Z,78.44
2019-03-17T06:19:06.337Z,78.16
2019-03-17T06:20:06.326Z,78.06
2019-03-17T06:21:06.639Z,77.83
2019-03-17T06:22:06.541Z,77.32
2019-03-17T06:23:06.347Z,77.31
2019-03-17T06:24:06.349Z,76.72
2019-03-17T06:25:06.356Z,76.86
2019-03-17T06:26:06.320Z,76.51
2019-03-17T06:27:06.384Z,76.22
2019-03-17T06:28:06.337Z,76.42
2019-03-17T06:29:06.338Z,76.82
2019-03-17T06:30:06.356Z,76.77
2019-03-17T06:31:06.316Z,76.73
2019-03-17T06:32:06.308Z,76.26
2019-03-17T06:33:06.319Z,76.14
2019-03-17T06:34:06.312Z,76.21
2019-03-17T06:35:06.365Z,76.48
2019-03-17T06:36:06.330Z,75.82
2019-03-17T06:37:06.345Z,75.82
2019-03-17T06:38:06.313Z,76.02
2019-03-17T06:39:06.312Z,75.84
2019-03-17T06:40:06.315Z,75.81
2019-03-17T06:41:06.330Z,75.93
2019-03-17T06:42:06.332Z,75.95
2019-03-17T06:43:06.486Z,75.84
2019-03-17T06:44:06.482Z,75.57
2019-03-17T06:45:06.352Z,75.31
2019-03-17T06:46:06.321Z,75.35
2019-03-17T06:47:06.338Z,75.22
2019-03-17T06:48:06.305Z,75.23
2019-03-17T06:49:06.293Z,74.46
2019-03-17T06:50:06.313Z,74.77
2019-03-17T06:51:06.311Z,74.53
2019-03-17T06:52:06.305Z,73.8
2019-03-17T06:53:06.316Z,73.55
2019-03-17T06:54:06.594Z,73.21
2019-03-17T06:55:06.285Z,73.06
2019-03-17T06:56:06.301Z,72.78
2019-03-17T06:57:06.283Z,72.97
2019-03-17T06:58:06.293Z,72.31
2019-03-17T06:59:06.317Z,72.67
2019-03-17T07:00:06.342Z,72.31
2019-03-17T07:01:06.324Z,71.38
2019-03-17T07:02:06.324Z,70.79
2019-03-17T07:03:06.312Z,70.77
2019-03-17T07:04:06.304Z,70.46
2019-03-17T07:05:06.419Z,69.99
2019-03-17T07:06:06.279Z,69.33
2019-03-17T07:07:06.257Z,70.03
2019-03-17T07:08:06.270Z,69.92
2019-03-17T07:09:06.273Z,68.15
2019-03-17T07:10:06.271Z,68.78
2019-03-17T07:11:06.291Z,68.29
2019-03-17T07:12:06.263Z,68.68
2019-03-17T07:13:06.269Z,68.88
2019-03-17T07:14:06.259Z,68.79
2019-03-17T07:15:06.265Z,68.76
2019-03-17T07:16:06.388Z,68.27
2019-03-17T07:17:06.286Z,67.84
2019-03-17T07:18:06.263Z,68.25
2019-03-17T07:19:06.296Z,68.52
2019-03-17T07:20:06.277Z,68.02
2019-03-17T07:21:06.266Z,67.57
2019-03-17T07:22:06.252Z,66.48
2019-03-17T07:23:06.264Z,66.81
2019-03-17T07:24:06.260Z,67.18
2019-03-17T07:25:06.339Z,67.38
2019-03-17T07:26:06.354Z,67.6
2019-03-17T07:27:06.402Z,67.26
2019-03-17T07:28:06.248Z,67.16
2019-03-17T07:29:06.246Z,65.76
2019-03-17T07:30:06.250Z,65.96
2019-03-17T07:31:06.282Z,65.5
2019-03-17T07:32:06.244Z,64.86
2019-03-17T07:33:06.245Z,64.99
2019-03-17T07:34:06.276Z,64.88
2019-03-17T07:35:06.244Z,64.82
2019-03-17T07:36:06.268Z,64.53
2019-03-17T07:37:06.280Z,64.51
2019-03-17T07:38:06.238Z,64.1
2019-03-17T07:39:11.460Z,64.63
2019-03-17T07:40:06.248Z,64.81
2019-03-17T07:41:06.316Z,65.02
2019-03-17T07:42:06.262Z,63.98
2019-03-17T07:43:06.237Z,65.05
2019-03-17T07:44:06.224Z,64.89
2019-03-17T07:45:06.223Z,64.72
2019-03-17T07:46:06.216Z,65.29
2019-03-17T07:47:06.312Z,65.28
2019-03-17T07:48:06.346Z,65.08
2019-03-17T07:49:06.284Z,65.2
2019-03-17T07:50:06.313Z,64.31
2019-03-17T07:51:06.215Z,64.8
2019-03-17T07:52:06.223Z,65.55
2019-03-17T07:53:06.218Z,65.37
2019-03-17T07:54:06.230Z,64.31
2019-03-17T07:55:06.250Z,64.16
2019-03-17T07:56:06.240Z,64.4
2019-03-17T07:57:06.363Z,64.18
2019-03-17T07:58:06.599Z,62.87
2019-03-17T07:59:06.296Z,63.38
2019-03-17T08:00:06.219Z,62.76
2019-03-17T08:01:06.189Z,62.22
2019-03-17T08:02:06.209Z,62.39
2019-03-17T08:03:06.251Z,63.1
2019-03-17T08:04:06.202Z,63.27
2019-03-17T08:05:06.220Z,62.5
2019-03-17T08:06:06.225Z,62.68
2019-03-17T08:07:06.185Z,63.04
2019-03-17T08:08:09.574Z,62.92
2019-03-17T08:09:06.183Z,63.08
2019-03-17T08:10:06.202Z,63.06
2019-03-17T08:11:06.186Z,63.08
2019-03-17T08:12:06.188Z,63.4
2019-03-17T08:13:06.231Z,63.22
2019-03-17T08:14:06.183Z,63.11
2019-03-17T08:15:06.182Z,62.6
2019-03-17T08:16:06.175Z,62.44
2019-03-17T08:17:06.173Z,62.92
2019-03-17T08:18:06.195Z,62.03
2019-03-17T08:19:06.320Z,62.21
2019-03-17T08:20:06.174Z,61.86
2019-03-17T08:21:06.188Z,63.15
2019-03-17T08:22:06.161Z,63.33
2019-03-17T08:23:06.174Z,63.14
2019-03-17T08:24:06.167Z,63.03
2019-03-17T08:25:06.176Z,63.15
2019-03-17T08:26:06.153Z,62.94
2019-03-17T08:27:06.176Z,63.38
2019-03-17T08:28:06.164Z,63.14
2019-03-17T08:29:06.157Z,62.33
2019-03-17T08:30:06.176Z,63.05
2019-03-17T08:31:06.179Z,63.55
2019-03-17T08:32:06.147Z,63.71
2019-03-17T08:33:06.149Z,62.63
2019-03-17T08:34:06.139Z,62.95
2019-03-17T08:35:06.302Z,63.05
2019-03-17T08:36:06.208Z,62.08
2019-03-17T08:37:06.155Z,62.65
2019-03-17T08:38:06.153Z,62.26
2019-03-17T08:39:06.184Z,63.07
2019-03-17T08:40:06.477Z,63.03
2019-03-17T08:41:06.192Z,63.02
2019-03-17T08:42:06.153Z,63.07
2019-03-17T08:43:06.156Z,62.78
2019-03-17T08:44:06.150Z,62.96
2019-03-17T08:45:06.180Z,63.28
2019-03-17T08:46:06.159Z,63.25
2019-03-17T08:47:06.163Z,62.63
2019-03-17T08:48:06.124Z,62.36
2019-03-17T08:49:06.160Z,62.23
2019-03-17T08:50:06.191Z,62.13
2019-03-17T08:51:06.174Z,61.8
2019-03-17T08:52:06.143Z,62.39
2019-03-17T08:53:06.123Z,61.97
2019-03-17T08:54:06.129Z,61.87
2019-03-17T08:55:06.119Z,61.73
2019-03-17T08:56:06.126Z,61.84
2019-03-17T08:57:06.123Z,62.41
2019-03-17T08:58:06.115Z,61.41
2019-03-17T08:59:06.108Z,62.32
2019-03-17T09:00:06.117Z,62.09
2019-03-17T09:01:06.138Z,62.4
2019-03-17T09:02:06.236Z,62.9
2019-03-17T09:03:06.111Z,62.57
2019-03-17T09:04:06.099Z,62.72
2019-03-17T09:05:06.119Z,62.75
2019-03-17T09:06:06.107Z,62.77
2019-03-17T09:07:06.104Z,62.83
2019-03-17T09:08:06.099Z,62.87
2019-03-17T09:09:06.110Z,62.19
2019-03-17T09:10:06.135Z,62.43
2019-03-17T09:11:06.091Z,62
2019-03-17T09:12:06.092Z,61.99
2019-03-17T09:13:06.093Z,61.69
2019-03-17T09:14:06.107Z,61.66
2019-03-17T09:15:06.103Z,62.14
2019-03-17T09:16:06.084Z,62.67
2019-03-17T09:17:13.989Z,62.3
2019-03-17T09:18:06.120Z,62.24
2019-03-17T09:19:06.084Z,62.19
2019-03-17T09:20:06.094Z,62.15
2019-03-17T09:21:06.097Z,62.41
2019-03-17T09:22:06.062Z,62.58
2019-03-17T09:23:06.101Z,62.06
2019-03-17T09:24:16.503Z,62.8
2019-03-17T09:25:06.081Z,62.47
2019-03-17T09:26:06.074Z,62.96
2019-03-17T09:27:06.057Z,62.4
2019-03-17T09:28:06.086Z,62.75
2019-03-17T09:29:06.210Z,62.79
2019-03-17T09:30:06.124Z,62.57
2019-03-17T09:31:07.510Z,63.06
2019-03-17T09:32:06.063Z,63.14
2019-03-17T09:33:06.111Z,63.57
2019-03-17T09:34:06.070Z,64.03
2019-03-17T09:35:06.072Z,64.24
2019-03-17T09:36:06.057Z,64.03
2019-03-17T09:37:06.154Z,63.82
2019-03-17T09:38:06.066Z,63.78
2019-03-17T09:39:06.098Z,63.55
2019-03-17T09:40:06.064Z,63.79
2019-03-17T09:41:06.056Z,64.03
2019-03-17T09:42:06.056Z,63.96
2019-03-17T09:43:06.103Z,63.63
2019-03-17T09:44:06.084Z,63.87
2019-03-17T09:45:06.609Z,63.94
2019-03-17T09:46:06.105Z,63.95
2019-03-17T09:47:06.141Z,63.95
2019-03-17T09:48:06.131Z,62.93
2019-03-17T09:49:06.066Z,63.03
2019-03-17T09:50:06.042Z,63.18
2019-03-17T09:51:06.093Z,62.98
2019-03-17T09:52:06.057Z,63.26
2019-03-17T09:53:06.039Z,63.94
2019-03-17T09:54:06.178Z,63.99
2019-03-17T09:55:06.041Z,64.01
2019-03-17T09:56:06.049Z,64.12
2019-03-17T09:57:06.162Z,64.34
2019-03-17T09:58:06.028Z,64.31
2019-03-17T09:59:06.085Z,64.84
2019-03-17T10:00:06.036Z,65.11
2019-03-17T10:01:06.019Z,64.89
2019-03-17T10:02:06.005Z,65.21
2019-03-17T10:03:06.026Z,64.98
2019-03-17T10:04:06.061Z,64.53
2019-03-17T10:05:06.028Z,64.37
2019-03-17T10:06:06.094Z,64.64
2019-03-17T10:07:06.553Z,64.37
2019-03-17T10:08:06.183Z,64.88
2019-03-17T10:09:06.035Z,65.16
2019-03-17T10:10:06.014Z,65.41
2019-03-17T10:11:06.121Z,65.45
2019-03-17T10:12:06.005Z,65.27
2019-03-17T10:13:06.017Z,65.11
2019-03-17T10:14:06.010Z,64.67
2019-03-17T10:15:06.030Z,65.14
2019-03-17T10:16:06.024Z,65.35
2019-03-17T10:17:06.030Z,65.02
2019-03-17T10:18:06.049Z,65.19
2019-03-17T10:19:06.020Z,65.08
2019-03-17T10:20:06.008Z,64.85
2019-03-17T10:21:06.006Z,65.21
2019-03-17T10:22:05.987Z,65.09
2019-03-17T10:23:06.028Z,64.72
2019-03-17T10:24:06.025Z,64.61
2019-03-17T10:25:06.007Z,64.93
2019-03-17T10:26:06.001Z,64.99
2019-03-17T10:27:06.076Z,65.45
2019-03-17T10:28:05.995Z,65.34
2019-03-17T10:29:06.134Z,65.09
2019-03-17T10:30:06.030Z,65.2
2019-03-17T10:31:06.036Z,65.53
2019-03-17T10:32:06.025Z,65.71
2019-03-17T10:33:06.021Z,65.74
2019-03-17T10:34:06.031Z,65.28
2019-03-17T10:35:06.025Z,65.46
2019-03-17T10:36:05.986Z,65.65
2019-03-17T10:37:06.033Z,65.92
2019-03-17T10:38:05.982Z,65.63
2019-03-17T10:39:12.170Z,65.78
2019-03-17T10:40:06.001Z,65.59
2019-03-17T10:41:06.047Z,65.57
2019-03-17T10:42:06.056Z,65.84
2019-03-17T10:43:05.996Z,65.73
2019-03-17T10:44:06.022Z,65.81
2019-03-17T10:45:05.976Z,66.22
2019-03-17T10:46:05.983Z,65.92
2019-03-17T10:47:05.984Z,65.98
2019-03-17T10:48:05.985Z,66.24
2019-03-17T10:49:05.990Z,65.92
2019-03-17T10:50:06.014Z,66.06
2019-03-17T10:51:06.193Z,65.99
2019-03-17T10:52:06.065Z,66.18
2019-03-17T10:53:06.001Z,65.72
2019-03-17T10:54:05.982Z,65.56
2019-03-17T10:55:05.954Z,65.94
2019-03-17T10:56:05.982Z,65.97
2019-03-17T10:57:06.017Z,64.98
2019-03-17T10:58:05.974Z,65.21
2019-03-17T10:59:05.944Z,65.01
2019-03-17T11:00:06.007Z,65.12
2019-03-17T11:01:06.047Z,64.89
2019-03-17T11:02:05.980Z,64.64
2019-03-17T11:03:05.960Z,65.02
2019-03-17T11:04:05.961Z,64.74
2019-03-17T11:05:05.994Z,64.66
2019-03-17T11:06:06.120Z,64.48
2019-03-17T11:07:06.009Z,64.57
2019-03-17T11:08:05.965Z,64.91
2019-03-17T11:09:05.959Z,64.63
2019-03-17T11:10:06.049Z,64.22
2019-03-17T11:11:05.954Z,64.1
2019-03-17T11:12:05.996Z,63.93
2019-03-17T11:13:06.034Z,64.28
2019-03-17T11:14:05.961Z,64.68
2019-03-17T11:15:06.024Z,64.38
2019-03-17T11:16:05.945Z,64.3
2019-03-17T11:17:06.034Z,64.02
2019-03-17T11:18:05.968Z,64.35
2019-03-17T11:19:05.915Z,64.08
2019-03-17T11:20:06.015Z,63.39
2019-03-17T11:21:05.955Z,63.41
2019-03-17T11:22:06.035Z,63.19
2019-03-17T11:23:05.970Z,63.62
2019-03-17T11:24:05.965Z,63.46
2019-03-17T11:25:05.925Z,63.82
2019-03-17T11:26:05.934Z,64.14
2019-03-17T11:27:06.250Z,64.44
2019-03-17T11:28:05.924Z,64.54
2019-03-17T11:29:06.016Z,64.42
2019-03-17T11:30:05.938Z,64.89
2019-03-17T11:31:05.946Z,64.63
2019-03-17T11:32:06.644Z,64.81
2019-03-17T11:33:05.943Z,64.21
2019-03-17T11:34:05.969Z,64.19
2019-03-17T11:35:05.916Z,64.66
2019-03-17T11:36:06.364Z,64.4
2019-03-17T11:37:05.901Z,64.41
2019-03-17T11:38:05.919Z,64.61
2019-03-17T11:39:05.896Z,64.25
2019-03-17T11:40:05.914Z,64.72
2019-03-17T11:41:05.944Z,64.49
2019-03-17T11:42:05.900Z,64.57
2019-03-17T11:43:05.892Z,64.69
2019-03-17T11:44:05.915Z,64.38
2019-03-17T11:45:05.913Z,64.18
2019-03-17T11:46:05.889Z,64.68
2019-03-17T11:47:05.905Z,64.68
2019-03-17T11:48:05.889Z,65.02
2019-03-17T11:49:05.881Z,64.64
2019-03-17T11:50:05.885Z,65.04
2019-03-17T11:51:05.896Z,64.92
2019-03-17T11:52:05.902Z,65.16
2019-03-17T11:53:05.898Z,65.59
2019-03-17T11:54:05.916Z,65.67
2019-03-17T11:55:05.875Z,65.6
2019-03-17T11:56:05.999Z,65.77
2019-03-17T11:57:05.892Z,66.12
2019-03-17T11:58:05.886Z,65.97
2019-03-17T11:59:05.900Z,66.35
2019-03-17T12:00:05.886Z,66.59
2019-03-17T12:01:05.952Z,66.86
2019-03-17T12:02:05.898Z,66.98
2019-03-17T12:03:05.862Z,67.18
2019-03-17T12:04:05.874Z,67.26
2019-03-17T12:05:05.866Z,67.45
2019-03-17T12:06:05.928Z,67.6
2019-03-17T12:07:05.887Z,67.85
2019-03-17T12:08:06.228Z,68.13
2019-03-17T12:09:05.898Z,68.2
2019-03-17T12:10:05.887Z,68.53
2019-03-17T12:11:05.864Z,68.94
2019-03-17T12:12:05.862Z,69.02
2019-03-17T12:13:05.941Z,69.01
2019-03-17T12:14:05.864Z,69.32
2019-03-17T12:15:05.867Z,69.73
2019-03-17T12:16:05.904Z,70.23
2019-03-17T12:17:06.095Z,70.72
2019-03-17T12:18:05.853Z,71.28
2019-03-17T12:19:05.839Z,71.94
2019-03-17T12:20:05.880Z,72.01
2019-03-17T12:21:05.854Z,72.73
2019-03-17T12:22:09.218Z,72.77
2019-03-17T12:23:05.898Z,72.83
2019-03-17T12:24:05.836Z,73.12
2019-03-17T12:25:05.881Z,73.68
2019-03-17T12:26:05.869Z,73.66
2019-03-17T12:27:05.843Z,74.19
2019-03-17T12:28:05.839Z,74.48
2019-03-17T12:29:05.836Z,74.37
2019-03-17T12:30:05.833Z,74.18
2019-03-17T12:31:05.843Z,74.67
2019-03-17T12:32:05.868Z,74.97
2019-03-17T12:33:05.906Z,74.95
2019-03-17T12:34:05.832Z,75.22
2019-03-17T12:35:05.823Z,75.58
2019-03-17T12:36:05.838Z,75.93
2019-03-17T12:37:05.825Z,76.13
2019-03-17T12:38:05.862Z,75.54
2019-03-17T12:39:06.040Z,75.59
2019-03-17T12:40:05.908Z,75.82
2019-03-17T12:41:05.839Z,77.33
2019-03-17T12:42:05.829Z,77.47
2019-03-17T12:43:05.834Z,76.84
2019-03-17T12:44:06.712Z,76.65
2019-03-17T12:45:05.849Z,76.42
2019-03-17T12:46:05.827Z,75.93
2019-03-17T12:47:05.812Z,76.86
2019-03-17T12:48:05.845Z,76.83
2019-03-17T12:49:05.801Z,75.92
2019-03-17T12:50:05.831Z,75.43
2019-03-17T12:51:05.804Z,75.55
2019-03-17T12:52:06.243Z,76.42
2019-03-17T12:53:07.813Z,74.82
2019-03-17T12:54:05.825Z,75.03